sensor_id;sensor_type;location;lat;lon;timestamp;P1;durP1;ratioP1;P2;durP2;ratioP2
34541;SDS011;20784;51.332;12.410;2024-03-07T00:02:08;58.45;;;24.48;;
34541;SDS011;20784;51.332;12.410;2024-03-07T00:04:37;47.38;;;23.15;;
34541;SDS011;20784;51.332;12.410;2024-03-07T00:07:05;54.95;;;24.17;;
34541;SDS011;20784;51.332;12.410;2024-03-07T00:09:32;55.90;;;25.38;;
34541;SDS011;20784;51.332;12.410;2024-03-07T00:11:59;58.45;;;25.98;;
34541;SDS011;20784;51.332;12.410;2024-03-07T00:14:25;53.42;;;24.60;;
34541;SDS011;20784;51.332;12.410;2024-03-07T00:16:52;53.33;;;25.17;;
34541;SDS011;20784;51.332;12.410;2024-03-07T00:19:19;61.33;;;25.17;;
34541;SDS011;20784;51.332;12.410;2024-03-07T00:21:44;52.70;;;25.58;;
34541;SDS011;20784;51.332;12.410;2024-03-07T00:24:10;59.88;;;26.95;;
34541;SDS011;20784;51.332;12.410;2024-03-07T00:26:35;66.63;;;26.70;;
34541;SDS011;20784;51.332;12.410;2024-03-07T00:29:01;59.65;;;28.23;;
34541;SDS011;20784;51.332;12.410;2024-03-07T00:31:27;60.17;;;27.23;;
34541;SDS011;20784;51.332;12.410;2024-03-07T00:33:55;61.35;;;26.65;;
34541;SDS011;20784;51.332;12.410;2024-03-07T00:36:21;67.75;;;28.42;;
34541;SDS011;20784;51.332;12.410;2024-03-07T00:38:47;63.03;;;28.83;;
34541;SDS011;20784;51.332;12.410;2024-03-07T00:41:12;70.32;;;28.48;;
34541;SDS011;20784;51.332;12.410;2024-03-07T00:43:38;68.30;;;29.35;;
34541;SDS011;20784;51.332;12.410;2024-03-07T00:46:03;66.72;;;28.33;;
34541;SDS011;20784;51.332;12.410;2024-03-07T00:48:31;66.38;;;29.75;;
34541;SDS011;20784;51.332;12.410;2024-03-07T00:50:57;68.95;;;28.70;;
34541;SDS011;20784;51.332;12.410;2024-03-07T00:53:23;69.85;;;28.60;;
34541;SDS011;20784;51.332;12.410;2024-03-07T00:55:48;64.43;;;30.35;;
34541;SDS011;20784;51.332;12.410;2024-03-07T00:58:14;66.57;;;30.33;;
34541;SDS011;20784;51.332;12.410;2024-03-07T01:00:39;76.45;;;30.80;;
34541;SDS011;20784;51.332;12.410;2024-03-07T01:03:08;68.70;;;30.25;;
34541;SDS011;20784;51.332;12.410;2024-03-07T01:05:36;81.10;;;31.48;;
34541;SDS011;20784;51.332;12.410;2024-03-07T01:08:03;74.18;;;31.70;;
34541;SDS011;20784;51.332;12.410;2024-03-07T01:10:29;78.22;;;30.42;;
34541;SDS011;20784;51.332;12.410;2024-03-07T01:12:55;76.13;;;30.83;;
34541;SDS011;20784;51.332;12.410;2024-03-07T01:15:25;75.57;;;30.00;;
34541;SDS011;20784;51.332;12.410;2024-03-07T01:17:51;79.57;;;31.60;;
34541;SDS011;20784;51.332;12.410;2024-03-07T01:20:16;86.38;;;32.47;;
34541;SDS011;20784;51.332;12.410;2024-03-07T01:22:42;72.88;;;31.40;;
34541;SDS011;20784;51.332;12.410;2024-03-07T01:25:10;86.57;;;32.33;;
34541;SDS011;20784;51.332;12.410;2024-03-07T01:27:37;74.60;;;33.05;;
34541;SDS011;20784;51.332;12.410;2024-03-07T01:30:03;83.22;;;34.03;;
34541;SDS011;20784;51.332;12.410;2024-03-07T01:32:35;79.93;;;31.33;;
34541;SDS011;20784;51.332;12.410;2024-03-07T01:35:01;71.32;;;34.05;;
34541;SDS011;20784;51.332;12.410;2024-03-07T01:37:26;80.03;;;33.05;;
34541;SDS011;20784;51.332;12.410;2024-03-07T01:39:55;81.00;;;34.85;;
34541;SDS011;20784;51.332;12.410;2024-03-07T01:42:20;88.88;;;33.70;;
34541;SDS011;20784;51.332;12.410;2024-03-07T01:44:46;92.82;;;34.90;;
34541;SDS011;20784;51.332;12.410;2024-03-07T01:47:11;93.80;;;36.33;;
34541;SDS011;20784;51.332;12.410;2024-03-07T01:49:39;81.82;;;34.72;;
34541;SDS011;20784;51.332;12.410;2024-03-07T01:52:05;94.20;;;36.42;;
34541;SDS011;20784;51.332;12.410;2024-03-07T01:54:31;93.35;;;38.28;;
34541;SDS011;20784;51.332;12.410;2024-03-07T01:56:57;94.93;;;36.22;;
34541;SDS011;20784;51.332;12.410;2024-03-07T01:59:23;93.82;;;38.40;;
34541;SDS011;20784;51.332;12.410;2024-03-07T02:01:49;94.00;;;39.75;;
34541;SDS011;20784;51.332;12.410;2024-03-07T02:04:15;96.18;;;39.28;;
34541;SDS011;20784;51.332;12.410;2024-03-07T02:06:41;94.55;;;39.92;;
34541;SDS011;20784;51.332;12.410;2024-03-07T02:09:07;99.55;;;40.42;;
34541;SDS011;20784;51.332;12.410;2024-03-07T02:11:33;93.05;;;39.67;;
34541;SDS011;20784;51.332;12.410;2024-03-07T02:13:59;88.78;;;39.60;;
34541;SDS011;20784;51.332;12.410;2024-03-07T02:16:24;94.40;;;39.90;;
34541;SDS011;20784;51.332;12.410;2024-03-07T02:18:50;89.70;;;38.47;;
34541;SDS011;20784;51.332;12.410;2024-03-07T02:21:16;93.50;;;40.30;;
34541;SDS011;20784;51.332;12.410;2024-03-07T02:23:42;84.97;;;39.47;;
34541;SDS011;20784;51.332;12.410;2024-03-07T02:26:08;85.63;;;39.78;;
34541;SDS011;20784;51.332;12.410;2024-03-07T02:28:34;91.75;;;40.85;;
34541;SDS011;20784;51.332;12.410;2024-03-07T02:31:00;85.82;;;39.28;;
34541;SDS011;20784;51.332;12.410;2024-03-07T02:33:29;81.90;;;38.30;;
34541;SDS011;20784;51.332;12.410;2024-03-07T02:35:57;87.30;;;37.80;;
34541;SDS011;20784;51.332;12.410;2024-03-07T02:38:26;83.55;;;35.35;;
34541;SDS011;20784;51.332;12.410;2024-03-07T02:40:51;82.70;;;37.35;;
34541;SDS011;20784;51.332;12.410;2024-03-07T02:43:17;77.68;;;36.33;;
34541;SDS011;20784;51.332;12.410;2024-03-07T02:45:43;77.57;;;35.70;;
34541;SDS011;20784;51.332;12.410;2024-03-07T02:48:11;77.93;;;35.70;;
34541;SDS011;20784;51.332;12.410;2024-03-07T02:50:37;76.45;;;35.35;;
34541;SDS011;20784;51.332;12.410;2024-03-07T02:53:03;76.60;;;36.28;;
34541;SDS011;20784;51.332;12.410;2024-03-07T02:55:29;72.93;;;34.80;;
34541;SDS011;20784;51.332;12.410;2024-03-07T02:57:56;72.78;;;35.00;;
34541;SDS011;20784;51.332;12.410;2024-03-07T03:00:23;72.18;;;33.67;;
34541;SDS011;20784;51.332;12.410;2024-03-07T03:02:54;75.93;;;34.78;;
34541;SDS011;20784;51.332;12.410;2024-03-07T03:05:23;74.65;;;34.92;;
34541;SDS011;20784;51.332;12.410;2024-03-07T03:07:49;68.90;;;34.17;;
34541;SDS011;20784;51.332;12.410;2024-03-07T03:10:21;74.18;;;34.45;;
34541;SDS011;20784;51.332;12.410;2024-03-07T03:12:58;80.78;;;36.22;;
34541;SDS011;20784;51.332;12.410;2024-03-07T03:15:24;76.22;;;36.20;;
34541;SDS011;20784;51.332;12.410;2024-03-07T03:17:50;74.22;;;35.78;;
34541;SDS011;20784;51.332;12.410;2024-03-07T03:20:16;80.05;;;36.60;;
34541;SDS011;20784;51.332;12.410;2024-03-07T03:22:51;79.80;;;34.20;;
34541;SDS011;20784;51.332;12.410;2024-03-07T03:25:18;87.05;;;36.47;;
34541;SDS011;20784;51.332;12.410;2024-03-07T03:27:44;91.63;;;36.80;;
34541;SDS011;20784;51.332;12.410;2024-03-07T03:30:10;94.22;;;38.30;;
34541;SDS011;20784;51.332;12.410;2024-03-07T03:32:39;92.45;;;37.88;;
34541;SDS011;20784;51.332;12.410;2024-03-07T03:35:07;96.22;;;38.20;;
34541;SDS011;20784;51.332;12.410;2024-03-07T03:37:38;97.57;;;37.37;;
34541;SDS011;20784;51.332;12.410;2024-03-07T03:40:07;90.85;;;36.75;;
34541;SDS011;20784;51.332;12.410;2024-03-07T03:42:35;92.18;;;38.53;;
34541;SDS011;20784;51.332;12.410;2024-03-07T03:45:02;92.80;;;38.40;;
34541;SDS011;20784;51.332;12.410;2024-03-07T03:47:31;85.30;;;36.28;;
34541;SDS011;20784;51.332;12.410;2024-03-07T03:49:58;91.07;;;39.10;;
34541;SDS011;20784;51.332;12.410;2024-03-07T03:52:24;90.38;;;36.92;;
34541;SDS011;20784;51.332;12.410;2024-03-07T03:54:51;88.50;;;36.83;;
34541;SDS011;20784;51.332;12.410;2024-03-07T03:57:16;86.20;;;36.28;;
34541;SDS011;20784;51.332;12.410;2024-03-07T03:59:46;94.22;;;37.05;;
34541;SDS011;20784;51.332;12.410;2024-03-07T04:02:11;82.38;;;33.83;;
34541;SDS011;20784;51.332;12.410;2024-03-07T04:04:40;81.97;;;35.47;;
34541;SDS011;20784;51.332;12.410;2024-03-07T04:07:11;77.28;;;32.97;;
34541;SDS011;20784;51.332;12.410;2024-03-07T04:09:37;89.05;;;34.88;;
34541;SDS011;20784;51.332;12.410;2024-03-07T04:12:03;83.63;;;35.30;;
34541;SDS011;20784;51.332;12.410;2024-03-07T04:14:35;73.55;;;32.47;;
34541;SDS011;20784;51.332;12.410;2024-03-07T04:17:09;87.18;;;34.90;;
34541;SDS011;20784;51.332;12.410;2024-03-07T04:19:39;73.38;;;32.30;;
34541;SDS011;20784;51.332;12.410;2024-03-07T04:22:05;72.68;;;33.15;;
34541;SDS011;20784;51.332;12.410;2024-03-07T04:24:33;75.15;;;34.20;;
34541;SDS011;20784;51.332;12.410;2024-03-07T04:27:02;65.97;;;32.13;;
34541;SDS011;20784;51.332;12.410;2024-03-07T04:29:31;73.88;;;31.80;;
34541;SDS011;20784;51.332;12.410;2024-03-07T04:32:00;70.68;;;32.83;;
34541;SDS011;20784;51.332;12.410;2024-03-07T04:34:30;74.70;;;31.63;;
34541;SDS011;20784;51.332;12.410;2024-03-07T04:37:02;79.18;;;34.92;;
34541;SDS011;20784;51.332;12.410;2024-03-07T04:39:27;70.68;;;32.50;;
34541;SDS011;20784;51.332;12.410;2024-03-07T04:41:57;69.00;;;31.48;;
34541;SDS011;20784;51.332;12.410;2024-03-07T04:44:29;64.07;;;32.17;;
34541;SDS011;20784;51.332;12.410;2024-03-07T04:46:56;76.50;;;32.85;;
34541;SDS011;20784;51.332;12.410;2024-03-07T04:49:22;65.95;;;30.75;;
34541;SDS011;20784;51.332;12.410;2024-03-07T04:51:52;71.47;;;32.67;;
34541;SDS011;20784;51.332;12.410;2024-03-07T04:54:21;60.22;;;31.10;;
34541;SDS011;20784;51.332;12.410;2024-03-07T04:56:48;65.97;;;31.40;;
34541;SDS011;20784;51.332;12.410;2024-03-07T04:59:14;64.13;;;31.85;;
34541;SDS011;20784;51.332;12.410;2024-03-07T05:01:44;68.72;;;32.17;;
34541;SDS011;20784;51.332;12.410;2024-03-07T05:04:13;63.17;;;32.05;;
34541;SDS011;20784;51.332;12.410;2024-03-07T05:06:39;70.95;;;31.88;;
34541;SDS011;20784;51.332;12.410;2024-03-07T05:09:06;66.03;;;30.38;;
34541;SDS011;20784;51.332;12.410;2024-03-07T05:11:33;66.10;;;31.75;;
34541;SDS011;20784;51.332;12.410;2024-03-07T05:14:00;63.20;;;31.52;;
34541;SDS011;20784;51.332;12.410;2024-03-07T05:16:28;63.92;;;32.72;;
34541;SDS011;20784;51.332;12.410;2024-03-07T05:18:54;67.93;;;33.58;;
34541;SDS011;20784;51.332;12.410;2024-03-07T05:21:24;60.72;;;31.70;;
34541;SDS011;20784;51.332;12.410;2024-03-07T05:24:01;67.30;;;32.22;;
34541;SDS011;20784;51.332;12.410;2024-03-07T05:26:28;57.03;;;32.15;;
34541;SDS011;20784;51.332;12.410;2024-03-07T05:28:58;60.50;;;31.73;;
34541;SDS011;20784;51.332;12.410;2024-03-07T05:31:32;59.33;;;29.90;;
34541;SDS011;20784;51.332;12.410;2024-03-07T05:33:59;53.78;;;30.30;;
34541;SDS011;20784;51.332;12.410;2024-03-07T05:36:28;50.35;;;29.75;;
34541;SDS011;20784;51.332;12.410;2024-03-07T05:38:57;56.50;;;32.67;;
34541;SDS011;20784;51.332;12.410;2024-03-07T05:41:23;55.58;;;31.25;;
34541;SDS011;20784;51.332;12.410;2024-03-07T05:43:48;57.92;;;30.02;;
34541;SDS011;20784;51.332;12.410;2024-03-07T05:46:16;52.58;;;29.15;;
34541;SDS011;20784;51.332;12.410;2024-03-07T05:48:41;55.80;;;29.95;;
34541;SDS011;20784;51.332;12.410;2024-03-07T05:51:07;58.38;;;29.40;;
34541;SDS011;20784;51.332;12.410;2024-03-07T05:53:35;54.85;;;28.05;;
34541;SDS011;20784;51.332;12.410;2024-03-07T05:56:00;56.15;;;28.45;;
34541;SDS011;20784;51.332;12.410;2024-03-07T05:58:35;53.80;;;28.85;;
34541;SDS011;20784;51.332;12.410;2024-03-07T06:01:03;57.90;;;28.75;;
34541;SDS011;20784;51.332;12.410;2024-03-07T06:03:28;58.25;;;29.45;;
34541;SDS011;20784;51.332;12.410;2024-03-07T06:05:54;59.15;;;30.52;;
34541;SDS011;20784;51.332;12.410;2024-03-07T06:08:20;62.67;;;30.60;;
34541;SDS011;20784;51.332;12.410;2024-03-07T06:10:46;55.33;;;30.20;;
34541;SDS011;20784;51.332;12.410;2024-03-07T06:13:13;51.40;;;28.85;;
34541;SDS011;20784;51.332;12.410;2024-03-07T06:15:42;50.03;;;29.00;;
34541;SDS011;20784;51.332;12.410;2024-03-07T06:18:09;51.50;;;28.35;;
34541;SDS011;20784;51.332;12.410;2024-03-07T06:20:35;52.60;;;29.83;;
34541;SDS011;20784;51.332;12.410;2024-03-07T06:23:02;58.78;;;29.20;;
34541;SDS011;20784;51.332;12.410;2024-03-07T06:25:37;52.08;;;28.55;;
34541;SDS011;20784;51.332;12.410;2024-03-07T06:28:12;58.17;;;29.95;;
34541;SDS011;20784;51.332;12.410;2024-03-07T06:30:38;51.05;;;28.08;;
34541;SDS011;20784;51.332;12.410;2024-03-07T06:33:05;55.78;;;29.13;;
34541;SDS011;20784;51.332;12.410;2024-03-07T06:35:31;50.20;;;27.92;;
34541;SDS011;20784;51.332;12.410;2024-03-07T06:37:57;54.75;;;26.60;;
34541;SDS011;20784;51.332;12.410;2024-03-07T06:40:23;46.53;;;26.35;;
34541;SDS011;20784;51.332;12.410;2024-03-07T06:42:50;47.38;;;26.83;;
34541;SDS011;20784;51.332;12.410;2024-03-07T06:45:17;52.30;;;27.08;;
34541;SDS011;20784;51.332;12.410;2024-03-07T06:47:43;45.58;;;26.00;;
34541;SDS011;20784;51.332;12.410;2024-03-07T06:50:09;47.20;;;27.10;;
34541;SDS011;20784;51.332;12.410;2024-03-07T06:52:39;47.90;;;25.85;;
34541;SDS011;20784;51.332;12.410;2024-03-07T06:55:05;51.58;;;26.70;;
34541;SDS011;20784;51.332;12.410;2024-03-07T06:57:32;52.78;;;26.23;;
34541;SDS011;20784;51.332;12.410;2024-03-07T06:59:59;52.20;;;27.77;;
34541;SDS011;20784;51.332;12.410;2024-03-07T07:02:24;53.95;;;25.70;;
34541;SDS011;20784;51.332;12.410;2024-03-07T07:04:52;46.20;;;24.77;;
34541;SDS011;20784;51.332;12.410;2024-03-07T07:07:18;43.10;;;24.52;;
34541;SDS011;20784;51.332;12.410;2024-03-07T07:09:45;43.15;;;24.17;;
34541;SDS011;20784;51.332;12.410;2024-03-07T07:12:10;46.53;;;25.80;;
34541;SDS011;20784;51.332;12.410;2024-03-07T07:14:36;40.65;;;23.55;;
34541;SDS011;20784;51.332;12.410;2024-03-07T07:17:02;47.80;;;23.92;;
34541;SDS011;20784;51.332;12.410;2024-03-07T07:19:28;36.83;;;23.08;;
34541;SDS011;20784;51.332;12.410;2024-03-07T07:21:54;42.28;;;24.33;;
34541;SDS011;20784;51.332;12.410;2024-03-07T07:24:20;43.33;;;23.45;;
34541;SDS011;20784;51.332;12.410;2024-03-07T07:26:48;37.38;;;22.48;;
34541;SDS011;20784;51.332;12.410;2024-03-07T07:29:17;38.13;;;22.00;;
34541;SDS011;20784;51.332;12.410;2024-03-07T07:31:43;33.55;;;20.77;;
34541;SDS011;20784;51.332;12.410;2024-03-07T07:34:10;36.47;;;20.13;;
34541;SDS011;20784;51.332;12.410;2024-03-07T07:36:36;40.50;;;21.25;;
34541;SDS011;20784;51.332;12.410;2024-03-07T07:39:01;38.40;;;19.65;;
34541;SDS011;20784;51.332;12.410;2024-03-07T07:41:39;30.20;;;16.83;;
34541;SDS011;20784;51.332;12.410;2024-03-07T07:44:04;36.20;;;17.67;;
34541;SDS011;20784;51.332;12.410;2024-03-07T07:46:30;31.92;;;18.27;;
34541;SDS011;20784;51.332;12.410;2024-03-07T07:48:55;30.10;;;15.85;;
34541;SDS011;20784;51.332;12.410;2024-03-07T07:51:21;33.08;;;17.33;;
34541;SDS011;20784;51.332;12.410;2024-03-07T07:53:47;29.25;;;16.85;;
34541;SDS011;20784;51.332;12.410;2024-03-07T07:56:13;30.33;;;15.43;;
34541;SDS011;20784;51.332;12.410;2024-03-07T07:58:38;24.33;;;15.65;;
34541;SDS011;20784;51.332;12.410;2024-03-07T08:01:05;28.77;;;15.15;;
34541;SDS011;20784;51.332;12.410;2024-03-07T08:03:33;23.25;;;13.90;;
34541;SDS011;20784;51.332;12.410;2024-03-07T08:05:58;22.88;;;14.95;;
34541;SDS011;20784;51.332;12.410;2024-03-07T08:08:24;22.42;;;13.13;;
34541;SDS011;20784;51.332;12.410;2024-03-07T08:10:49;23.40;;;12.43;;
34541;SDS011;20784;51.332;12.410;2024-03-07T08:13:15;22.60;;;12.13;;
34541;SDS011;20784;51.332;12.410;2024-03-07T08:15:40;26.30;;;12.30;;
34541;SDS011;20784;51.332;12.410;2024-03-07T08:18:06;20.83;;;11.85;;
34541;SDS011;20784;51.332;12.410;2024-03-07T08:20:33;21.05;;;12.23;;
34541;SDS011;20784;51.332;12.410;2024-03-07T08:22:59;22.27;;;13.15;;
34541;SDS011;20784;51.332;12.410;2024-03-07T08:25:26;22.23;;;12.70;;
34541;SDS011;20784;51.332;12.410;2024-03-07T08:27:53;21.92;;;12.80;;
34541;SDS011;20784;51.332;12.410;2024-03-07T08:30:20;23.63;;;13.52;;
34541;SDS011;20784;51.332;12.410;2024-03-07T08:32:46;24.35;;;12.68;;
34541;SDS011;20784;51.332;12.410;2024-03-07T08:35:13;26.45;;;14.25;;
34541;SDS011;20784;51.332;12.410;2024-03-07T08:37:44;29.30;;;14.00;;
34541;SDS011;20784;51.332;12.410;2024-03-07T08:40:11;25.63;;;13.80;;
34541;SDS011;20784;51.332;12.410;2024-03-07T08:42:44;21.58;;;12.90;;
34541;SDS011;20784;51.332;12.410;2024-03-07T08:45:10;21.90;;;13.30;;
34541;SDS011;20784;51.332;12.410;2024-03-07T08:47:42;16.90;;;10.63;;
34541;SDS011;20784;51.332;12.410;2024-03-07T08:50:08;22.85;;;11.93;;
34541;SDS011;20784;51.332;12.410;2024-03-07T08:52:34;23.27;;;12.57;;
34541;SDS011;20784;51.332;12.410;2024-03-07T08:55:04;23.75;;;11.88;;
34541;SDS011;20784;51.332;12.410;2024-03-07T08:57:31;21.75;;;11.25;;
34541;SDS011;20784;51.332;12.410;2024-03-07T08:59:56;18.98;;;10.85;;
34541;SDS011;20784;51.332;12.410;2024-03-07T09:02:22;23.50;;;10.77;;
34541;SDS011;20784;51.332;12.410;2024-03-07T09:04:48;22.98;;;10.95;;
34541;SDS011;20784;51.332;12.410;2024-03-07T09:07:14;18.92;;;10.98;;
34541;SDS011;20784;51.332;12.410;2024-03-07T09:09:40;18.42;;;10.13;;
34541;SDS011;20784;51.332;12.410;2024-03-07T09:12:08;20.45;;;10.50;;
34541;SDS011;20784;51.332;12.410;2024-03-07T09:14:34;20.55;;;9.77;;
34541;SDS011;20784;51.332;12.410;2024-03-07T09:17:00;20.90;;;10.65;;
34541;SDS011;20784;51.332;12.410;2024-03-07T09:19:26;15.98;;;9.65;;
34541;SDS011;20784;51.332;12.410;2024-03-07T09:21:53;18.08;;;9.68;;
34541;SDS011;20784;51.332;12.410;2024-03-07T09:24:21;19.83;;;9.60;;
34541;SDS011;20784;51.332;12.410;2024-03-07T09:26:48;13.55;;;9.32;;
34541;SDS011;20784;51.332;12.410;2024-03-07T09:29:18;17.92;;;9.77;;
34541;SDS011;20784;51.332;12.410;2024-03-07T09:31:44;23.63;;;9.77;;
34541;SDS011;20784;51.332;12.410;2024-03-07T09:34:11;24.77;;;9.50;;
34541;SDS011;20784;51.332;12.410;2024-03-07T09:36:37;23.05;;;9.25;;
34541;SDS011;20784;51.332;12.410;2024-03-07T09:39:04;17.27;;;9.13;;
34541;SDS011;20784;51.332;12.410;2024-03-07T09:41:30;17.73;;;9.35;;
34541;SDS011;20784;51.332;12.410;2024-03-07T09:43:57;16.00;;;8.68;;
34541;SDS011;20784;51.332;12.410;2024-03-07T09:46:26;16.23;;;8.95;;
34541;SDS011;20784;51.332;12.410;2024-03-07T09:48:52;17.98;;;9.65;;
34541;SDS011;20784;51.332;12.410;2024-03-07T09:51:22;14.13;;;8.20;;
34541;SDS011;20784;51.332;12.410;2024-03-07T09:53:51;15.88;;;9.43;;
34541;SDS011;20784;51.332;12.410;2024-03-07T09:56:20;13.13;;;8.05;;
34541;SDS011;20784;51.332;12.410;2024-03-07T09:58:48;26.40;;;9.90;;
34541;SDS011;20784;51.332;12.410;2024-03-07T10:01:19;18.45;;;9.30;;
34541;SDS011;20784;51.332;12.410;2024-03-07T10:03:48;17.42;;;9.05;;
34541;SDS011;20784;51.332;12.410;2024-03-07T10:06:18;15.15;;;8.93;;
34541;SDS011;20784;51.332;12.410;2024-03-07T10:08:46;21.15;;;9.63;;
34541;SDS011;20784;51.332;12.410;2024-03-07T10:11:13;20.60;;;9.60;;
34541;SDS011;20784;51.332;12.410;2024-03-07T10:13:39;18.27;;;9.60;;
34541;SDS011;20784;51.332;12.410;2024-03-07T10:16:06;17.15;;;10.43;;
34541;SDS011;20784;51.332;12.410;2024-03-07T10:18:33;18.33;;;10.88;;
34541;SDS011;20784;51.332;12.410;2024-03-07T10:21:06;18.77;;;10.50;;
34541;SDS011;20784;51.332;12.410;2024-03-07T10:23:31;20.10;;;10.95;;
34541;SDS011;20784;51.332;12.410;2024-03-07T10:25:59;19.50;;;10.93;;
34541;SDS011;20784;51.332;12.410;2024-03-07T10:28:26;15.90;;;9.88;;
34541;SDS011;20784;51.332;12.410;2024-03-07T10:30:53;17.73;;;10.90;;
34541;SDS011;20784;51.332;12.410;2024-03-07T10:33:18;17.52;;;9.70;;
34541;SDS011;20784;51.332;12.410;2024-03-07T10:35:50;20.33;;;9.65;;
34541;SDS011;20784;51.332;12.410;2024-03-07T10:40:43;21.02;;;10.00;;
34541;SDS011;20784;51.332;12.410;2024-03-07T10:43:12;15.85;;;9.57;;
34541;SDS011;20784;51.332;12.410;2024-03-07T10:45:43;18.38;;;9.00;;
34541;SDS011;20784;51.332;12.410;2024-03-07T10:48:11;18.05;;;9.93;;
34541;SDS011;20784;51.332;12.410;2024-03-07T11:01:22;20.58;;;10.48;;
34541;SDS011;20784;51.332;12.410;2024-03-07T11:03:49;17.08;;;10.50;;
34541;SDS011;20784;51.332;12.410;2024-03-07T11:06:16;20.35;;;10.75;;
34541;SDS011;20784;51.332;12.410;2024-03-07T11:08:42;17.92;;;10.57;;
34541;SDS011;20784;51.332;12.410;2024-03-07T11:11:12;15.77;;;10.70;;
34541;SDS011;20784;51.332;12.410;2024-03-07T11:13:38;19.02;;;10.52;;
34541;SDS011;20784;51.332;12.410;2024-03-07T11:16:05;21.63;;;11.27;;
34541;SDS011;20784;51.332;12.410;2024-03-07T11:18:31;19.45;;;11.00;;
34541;SDS011;20784;51.332;12.410;2024-03-07T11:20:57;18.40;;;11.50;;
34541;SDS011;20784;51.332;12.410;2024-03-07T11:23:26;21.05;;;12.38;;
34541;SDS011;20784;51.332;12.410;2024-03-07T11:26:07;24.80;;;11.85;;
34541;SDS011;20784;51.332;12.410;2024-03-07T11:28:34;17.88;;;10.45;;
34541;SDS011;20784;51.332;12.410;2024-03-07T11:31:09;18.75;;;10.27;;
34541;SDS011;20784;51.332;12.410;2024-03-07T11:33:38;17.73;;;10.93;;
34541;SDS011;20784;51.332;12.410;2024-03-07T11:36:09;17.50;;;11.27;;
34541;SDS011;20784;51.332;12.410;2024-03-07T11:38:45;15.35;;;10.18;;
34541;SDS011;20784;51.332;12.410;2024-03-07T11:41:13;19.38;;;11.10;;
34541;SDS011;20784;51.332;12.410;2024-03-07T11:43:42;19.05;;;11.57;;
34541;SDS011;20784;51.332;12.410;2024-03-07T11:46:08;17.95;;;11.00;;
34541;SDS011;20784;51.332;12.410;2024-03-07T11:48:39;18.42;;;11.15;;
34541;SDS011;20784;51.332;12.410;2024-03-07T11:51:08;18.83;;;11.63;;
34541;SDS011;20784;51.332;12.410;2024-03-07T11:53:38;19.13;;;12.00;;
34541;SDS011;20784;51.332;12.410;2024-03-07T11:56:04;17.25;;;11.50;;
34541;SDS011;20784;51.332;12.410;2024-03-07T11:58:37;21.02;;;11.88;;
34541;SDS011;20784;51.332;12.410;2024-03-07T12:01:06;20.20;;;12.20;;
34541;SDS011;20784;51.332;12.410;2024-03-07T12:03:35;19.70;;;11.63;;
34541;SDS011;20784;51.332;12.410;2024-03-07T12:06:02;21.50;;;12.30;;
34541;SDS011;20784;51.332;12.410;2024-03-07T12:08:30;18.90;;;11.90;;
34541;SDS011;20784;51.332;12.410;2024-03-07T12:10:56;17.60;;;11.95;;
34541;SDS011;20784;51.332;12.410;2024-03-07T12:13:22;19.77;;;11.32;;
34541;SDS011;20784;51.332;12.410;2024-03-07T12:15:49;18.60;;;11.65;;
34541;SDS011;20784;51.332;12.410;2024-03-07T12:18:17;19.63;;;12.27;;
34541;SDS011;20784;51.332;12.410;2024-03-07T12:20:44;23.00;;;13.63;;
34541;SDS011;20784;51.332;12.410;2024-03-07T12:23:22;20.65;;;12.23;;
34541;SDS011;20784;51.332;12.410;2024-03-07T12:26:42;24.02;;;13.23;;
34541;SDS011;20784;51.332;12.410;2024-03-07T12:28:50;18.98;;;12.68;;
34541;SDS011;20784;51.332;12.410;2024-03-07T12:31:19;21.40;;;13.00;;
34541;SDS011;20784;51.332;12.410;2024-03-07T12:33:48;25.85;;;13.18;;
34541;SDS011;20784;51.332;12.410;2024-03-07T12:36:16;22.45;;;13.98;;
34541;SDS011;20784;51.332;12.410;2024-03-07T12:38:42;21.65;;;14.85;;
34541;SDS011;20784;51.332;12.410;2024-03-07T12:41:09;25.90;;;15.73;;
34541;SDS011;20784;51.332;12.410;2024-03-07T12:43:41;19.73;;;13.82;;
34541;SDS011;20784;51.332;12.410;2024-03-07T12:46:07;22.50;;;12.30;;
34541;SDS011;20784;51.332;12.410;2024-03-07T12:48:36;20.60;;;12.50;;
34541;SDS011;20784;51.332;12.410;2024-03-07T12:51:03;18.98;;;11.82;;
34541;SDS011;20784;51.332;12.410;2024-03-07T12:53:29;22.50;;;13.00;;
34541;SDS011;20784;51.332;12.410;2024-03-07T12:55:56;20.58;;;12.18;;
34541;SDS011;20784;51.332;12.410;2024-03-07T12:58:22;19.85;;;12.10;;
34541;SDS011;20784;51.332;12.410;2024-03-07T13:00:51;19.80;;;11.98;;
34541;SDS011;20784;51.332;12.410;2024-03-07T13:03:17;19.60;;;11.02;;
34541;SDS011;20784;51.332;12.410;2024-03-07T13:05:43;24.83;;;12.15;;
34541;SDS011;20784;51.332;12.410;2024-03-07T13:08:09;19.73;;;10.65;;
34541;SDS011;20784;51.332;12.410;2024-03-07T13:10:46;21.55;;;11.50;;
34541;SDS011;20784;51.332;12.410;2024-03-07T13:13:11;19.27;;;12.07;;
34541;SDS011;20784;51.332;12.410;2024-03-07T13:15:37;23.00;;;12.57;;
34541;SDS011;20784;51.332;12.410;2024-03-07T13:18:04;20.90;;;11.85;;
34541;SDS011;20784;51.332;12.410;2024-03-07T13:20:34;19.58;;;11.60;;
34541;SDS011;20784;51.332;12.410;2024-03-07T13:23:00;21.08;;;12.40;;
34541;SDS011;20784;51.332;12.410;2024-03-07T13:25:28;20.35;;;12.38;;
34541;SDS011;20784;51.332;12.410;2024-03-07T13:30:38;19.00;;;11.65;;
34541;SDS011;20784;51.332;12.410;2024-03-07T13:33:05;21.38;;;12.73;;
34541;SDS011;20784;51.332;12.410;2024-03-07T13:35:33;18.70;;;11.88;;
34541;SDS011;20784;51.332;12.410;2024-03-07T13:37:58;24.90;;;12.70;;
34541;SDS011;20784;51.332;12.410;2024-03-07T13:40:24;18.85;;;11.88;;
34541;SDS011;20784;51.332;12.410;2024-03-07T13:42:52;19.65;;;12.20;;
34541;SDS011;20784;51.332;12.410;2024-03-07T13:45:25;21.85;;;12.38;;
34541;SDS011;20784;51.332;12.410;2024-03-07T13:47:55;19.40;;;11.75;;
34541;SDS011;20784;51.332;12.410;2024-03-07T13:50:23;19.80;;;12.35;;
34541;SDS011;20784;51.332;12.410;2024-03-07T13:52:50;22.88;;;13.85;;
34541;SDS011;20784;51.332;12.410;2024-03-07T13:55:53;18.80;;;12.75;;
34541;SDS011;20784;51.332;12.410;2024-03-07T13:58:33;23.42;;;12.65;;
34541;SDS011;20784;51.332;12.410;2024-03-07T14:01:19;22.63;;;13.45;;
34541;SDS011;20784;51.332;12.410;2024-03-07T14:04:32;20.48;;;12.55;;
34541;SDS011;20784;51.332;12.410;2024-03-07T14:22:30;23.58;;;12.52;;
34541;SDS011;20784;51.332;12.410;2024-03-07T14:28:09;20.67;;;11.90;;
34541;SDS011;20784;51.332;12.410;2024-03-07T14:30:53;19.55;;;11.55;;
34541;SDS011;20784;51.332;12.410;2024-03-07T14:33:32;19.67;;;12.30;;
34541;SDS011;20784;51.332;12.410;2024-03-07T14:36:14;21.17;;;11.90;;
34541;SDS011;20784;51.332;12.410;2024-03-07T14:38:47;20.90;;;12.43;;
34541;SDS011;20784;51.332;12.410;2024-03-07T14:41:16;19.90;;;11.90;;
34541;SDS011;20784;51.332;12.410;2024-03-07T14:43:44;21.67;;;11.90;;
34541;SDS011;20784;51.332;12.410;2024-03-07T14:46:13;20.42;;;11.98;;
34541;SDS011;20784;51.332;12.410;2024-03-07T14:48:40;20.00;;;12.85;;
34541;SDS011;20784;51.332;12.410;2024-03-07T14:51:10;24.52;;;12.63;;